sensor_id;sensor_type;location;lat;lon;timestamp;P1;durP1;ratioP1;P2;durP2;ratioP2
4601;SDS011;2313;48.552;9.370;2023-08-01T00:01:27;6.13;;;3.10;;
4601;SDS011;2313;48.552;9.370;2023-08-01T00:03:54;4.77;;;3.30;;
4601;SDS011;2313;48.552;9.370;2023-08-01T00:06:19;5.77;;;4.00;;
4601;SDS011;2313;48.552;9.370;2023-08-01T00:08:47;5.40;;;2.93;;
4601;SDS011;2313;48.552;9.370;2023-08-01T00:11:12;4.03;;;2.80;;
4601;SDS011;2313;48.552;9.370;2023-08-01T00:13:39;5.40;;;3.77;;
4601;SDS011;2313;48.552;9.370;2023-08-01T00:16:05;4.97;;;3.70;;
4601;SDS011;2313;48.552;9.370;2023-08-01T00:18:31;4.47;;;3.73;;
4601;SDS011;2313;48.552;9.370;2023-08-01T00:20:57;7.10;;;3.50;;
4601;SDS011;2313;48.552;9.370;2023-08-01T00:23:23;6.70;;;3.90;;
4601;SDS011;2313;48.552;9.370;2023-08-01T00:25:49;6.27;;;2.90;;
4601;SDS011;2313;48.552;9.370;2023-08-01T00:28:21;5.90;;;3.50;;
4601;SDS011;2313;48.552;9.370;2023-08-01T00:30:47;4.60;;;3.57;;
4601;SDS011;2313;48.552;9.370;2023-08-01T00:33:13;6.07;;;3.70;;
4601;SDS011;2313;48.552;9.370;2023-08-01T00:35:39;4.97;;;3.20;;
4601;SDS011;2313;48.552;9.370;2023-08-01T00:38:05;3.40;;;3.00;;
4601;SDS011;2313;48.552;9.370;2023-08-01T00:40:31;5.87;;;3.27;;
4601;SDS011;2313;48.552;9.370;2023-08-01T00:42:57;3.50;;;3.03;;
4601;SDS011;2313;48.552;9.370;2023-08-01T00:45:23;7.47;;;4.00;;
4601;SDS011;2313;48.552;9.370;2023-08-01T00:47:50;5.60;;;3.30;;
4601;SDS011;2313;48.552;9.370;2023-08-01T00:50:17;3.87;;;3.33;;
4601;SDS011;2313;48.552;9.370;2023-08-01T00:52:45;4.87;;;3.17;;
4601;SDS011;2313;48.552;9.370;2023-08-01T00:55:12;6.00;;;3.50;;
4601;SDS011;2313;48.552;9.370;2023-08-01T00:57:38;5.03;;;3.40;;
4601;SDS011;2313;48.552;9.370;2023-08-01T01:00:04;3.37;;;3.07;;
4601;SDS011;2313;48.552;9.370;2023-08-01T01:02:30;9.10;;;3.60;;
4601;SDS011;2313;48.552;9.370;2023-08-01T01:04:55;7.73;;;3.30;;
4601;SDS011;2313;48.552;9.370;2023-08-01T01:07:21;4.87;;;3.10;;
4601;SDS011;2313;48.552;9.370;2023-08-01T01:09:48;4.43;;;4.03;;
4601;SDS011;2313;48.552;9.370;2023-08-01T01:12:15;3.70;;;2.80;;
4601;SDS011;2313;48.552;9.370;2023-08-01T01:14:41;5.03;;;2.53;;
4601;SDS011;2313;48.552;9.370;2023-08-01T01:17:06;5.57;;;2.77;;
4601;SDS011;2313;48.552;9.370;2023-08-01T01:19:32;8.53;;;3.20;;
4601;SDS011;2313;48.552;9.370;2023-08-01T01:21:58;4.30;;;3.23;;
4601;SDS011;2313;48.552;9.370;2023-08-01T01:24:23;6.03;;;3.60;;
4601;SDS011;2313;48.552;9.370;2023-08-01T01:26:51;4.00;;;3.00;;
4601;SDS011;2313;48.552;9.370;2023-08-01T01:29:18;7.33;;;3.90;;
4601;SDS011;2313;48.552;9.370;2023-08-01T01:31:44;5.07;;;3.00;;
4601;SDS011;2313;48.552;9.370;2023-08-01T01:34:10;7.30;;;3.77;;
4601;SDS011;2313;48.552;9.370;2023-08-01T01:36:37;4.67;;;2.83;;
4601;SDS011;2313;48.552;9.370;2023-08-01T01:39:02;6.60;;;3.00;;
4601;SDS011;2313;48.552;9.370;2023-08-01T01:41:28;10.43;;;4.20;;
4601;SDS011;2313;48.552;9.370;2023-08-01T01:43:53;6.00;;;3.93;;
4601;SDS011;2313;48.552;9.370;2023-08-01T01:46:19;4.50;;;3.40;;
4601;SDS011;2313;48.552;9.370;2023-08-01T01:48:45;4.90;;;3.47;;
4601;SDS011;2313;48.552;9.370;2023-08-01T01:51:10;5.43;;;3.70;;
4601;SDS011;2313;48.552;9.370;2023-08-01T01:53:36;6.67;;;3.27;;
4601;SDS011;2313;48.552;9.370;2023-08-01T01:56:01;5.13;;;3.80;;
4601;SDS011;2313;48.552;9.370;2023-08-01T01:58:27;8.97;;;4.40;;
4601;SDS011;2313;48.552;9.370;2023-08-01T02:00:52;7.03;;;3.80;;
4601;SDS011;2313;48.552;9.370;2023-08-01T02:03:18;3.37;;;2.93;;
4601;SDS011;2313;48.552;9.370;2023-08-01T02:05:44;7.10;;;3.30;;
4601;SDS011;2313;48.552;9.370;2023-08-01T02:08:10;5.00;;;3.10;;
4601;SDS011;2313;48.552;9.370;2023-08-01T02:10:35;9.00;;;3.97;;
4601;SDS011;2313;48.552;9.370;2023-08-01T02:13:01;6.60;;;3.13;;
4601;SDS011;2313;48.552;9.370;2023-08-01T02:15:26;5.90;;;3.13;;
4601;SDS011;2313;48.552;9.370;2023-08-01T02:17:52;5.13;;;3.17;;
4601;SDS011;2313;48.552;9.370;2023-08-01T02:20:18;3.93;;;3.13;;
4601;SDS011;2313;48.552;9.370;2023-08-01T02:22:43;4.50;;;3.30;;
4601;SDS011;2313;48.552;9.370;2023-08-01T02:25:09;8.43;;;3.67;;
4601;SDS011;2313;48.552;9.370;2023-08-01T02:27:34;8.93;;;3.70;;
4601;SDS011;2313;48.552;9.370;2023-08-01T02:30:00;4.10;;;2.90;;
4601;SDS011;2313;48.552;9.370;2023-08-01T02:32:26;5.10;;;3.20;;
4601;SDS011;2313;48.552;9.370;2023-08-01T02:34:51;6.10;;;3.20;;
4601;SDS011;2313;48.552;9.370;2023-08-01T02:37:17;3.57;;;2.80;;
4601;SDS011;2313;48.552;9.370;2023-08-01T02:39:43;6.43;;;3.47;;
4601;SDS011;2313;48.552;9.370;2023-08-01T02:42:08;6.80;;;3.17;;
4601;SDS011;2313;48.552;9.370;2023-08-01T02:44:34;6.23;;;3.27;;
4601;SDS011;2313;48.552;9.370;2023-08-01T02:46:59;6.03;;;2.97;;
4601;SDS011;2313;48.552;9.370;2023-08-01T02:49:25;3.40;;;3.07;;
4601;SDS011;2313;48.552;9.370;2023-08-01T02:51:51;5.10;;;2.97;;
4601;SDS011;2313;48.552;9.370;2023-08-01T02:54:16;9.27;;;4.00;;
4601;SDS011;2313;48.552;9.370;2023-08-01T02:56:42;5.23;;;2.80;;
4601;SDS011;2313;48.552;9.370;2023-08-01T02:59:08;6.03;;;3.23;;
4601;SDS011;2313;48.552;9.370;2023-08-01T03:01:34;3.83;;;3.13;;
4601;SDS011;2313;48.552;9.370;2023-08-01T03:04:03;6.63;;;3.43;;
4601;SDS011;2313;48.552;9.370;2023-08-01T03:06:30;5.03;;;3.30;;
4601;SDS011;2313;48.552;9.370;2023-08-01T03:08:57;12.97;;;3.60;;
4601;SDS011;2313;48.552;9.370;2023-08-01T03:11:23;5.00;;;3.73;;
4601;SDS011;2313;48.552;9.370;2023-08-01T03:13:48;9.30;;;3.30;;
4601;SDS011;2313;48.552;9.370;2023-08-01T03:16:14;6.70;;;3.87;;
4601;SDS011;2313;48.552;9.370;2023-08-01T03:18:39;3.80;;;2.93;;
4601;SDS011;2313;48.552;9.370;2023-08-01T03:21:05;5.53;;;3.10;;
4601;SDS011;2313;48.552;9.370;2023-08-01T03:23:31;5.67;;;3.30;;
4601;SDS011;2313;48.552;9.370;2023-08-01T03:25:57;10.27;;;3.37;;
4601;SDS011;2313;48.552;9.370;2023-08-01T03:28:23;5.43;;;3.70;;
4601;SDS011;2313;48.552;9.370;2023-08-01T03:30:51;6.80;;;3.90;;
4601;SDS011;2313;48.552;9.370;2023-08-01T03:33:18;9.13;;;3.47;;
4601;SDS011;2313;48.552;9.370;2023-08-01T03:35:44;4.80;;;3.37;;
4601;SDS011;2313;48.552;9.370;2023-08-01T03:38:10;4.93;;;3.30;;
4601;SDS011;2313;48.552;9.370;2023-08-01T03:40:35;3.00;;;2.70;;
4601;SDS011;2313;48.552;9.370;2023-08-01T03:43:01;5.20;;;3.53;;
4601;SDS011;2313;48.552;9.370;2023-08-01T03:45:26;4.63;;;3.27;;
4601;SDS011;2313;48.552;9.370;2023-08-01T03:47:52;6.13;;;3.63;;
4601;SDS011;2313;48.552;9.370;2023-08-01T03:50:18;5.70;;;3.30;;
4601;SDS011;2313;48.552;9.370;2023-08-01T03:52:43;6.83;;;2.97;;
4601;SDS011;2313;48.552;9.370;2023-08-01T03:55:10;7.30;;;3.50;;
4601;SDS011;2313;48.552;9.370;2023-08-01T03:57:36;6.90;;;3.20;;
4601;SDS011;2313;48.552;9.370;2023-08-01T04:00:03;8.13;;;3.20;;
4601;SDS011;2313;48.552;9.370;2023-08-01T04:02:38;7.43;;;2.80;;
4601;SDS011;2313;48.552;9.370;2023-08-01T04:05:05;7.07;;;4.07;;
4601;SDS011;2313;48.552;9.370;2023-08-01T04:07:31;4.73;;;3.60;;
4601;SDS011;2313;48.552;9.370;2023-08-01T04:09:56;3.33;;;2.70;;
4601;SDS011;2313;48.552;9.370;2023-08-01T04:12:22;6.97;;;3.07;;
4601;SDS011;2313;48.552;9.370;2023-08-01T04:14:47;4.40;;;3.50;;
4601;SDS011;2313;48.552;9.370;2023-08-01T04:17:13;5.10;;;3.30;;
4601;SDS011;2313;48.552;9.370;2023-08-01T04:19:39;4.30;;;2.90;;
4601;SDS011;2313;48.552;9.370;2023-08-01T04:22:04;4.80;;;3.50;;
4601;SDS011;2313;48.552;9.370;2023-08-01T04:24:30;6.47;;;3.53;;
4601;SDS011;2313;48.552;9.370;2023-08-01T04:26:56;5.43;;;2.90;;
4601;SDS011;2313;48.552;9.370;2023-08-01T04:29:21;6.80;;;3.63;;
4601;SDS011;2313;48.552;9.370;2023-08-01T04:31:47;4.03;;;2.80;;
4601;SDS011;2313;48.552;9.370;2023-08-01T04:34:13;4.70;;;2.80;;
4601;SDS011;2313;48.552;9.370;2023-08-01T04:36:38;8.20;;;3.40;;
4601;SDS011;2313;48.552;9.370;2023-08-01T04:39:04;4.80;;;3.13;;
4601;SDS011;2313;48.552;9.370;2023-08-01T04:41:30;8.23;;;3.23;;
4601;SDS011;2313;48.552;9.370;2023-08-01T04:43:56;4.97;;;2.77;;
4601;SDS011;2313;48.552;9.370;2023-08-01T04:46:21;4.77;;;3.30;;
4601;SDS011;2313;48.552;9.370;2023-08-01T04:48:47;4.40;;;2.80;;
4601;SDS011;2313;48.552;9.370;2023-08-01T04:51:13;5.80;;;3.57;;
4601;SDS011;2313;48.552;9.370;2023-08-01T04:53:38;3.73;;;3.33;;
4601;SDS011;2313;48.552;9.370;2023-08-01T04:56:04;7.63;;;3.70;;
4601;SDS011;2313;48.552;9.370;2023-08-01T04:58:30;5.80;;;3.33;;
4601;SDS011;2313;48.552;9.370;2023-08-01T05:00:55;13.33;;;3.47;;
4601;SDS011;2313;48.552;9.370;2023-08-01T05:03:21;6.90;;;3.67;;
4601;SDS011;2313;48.552;9.370;2023-08-01T05:05:47;6.57;;;3.80;;
4601;SDS011;2313;48.552;9.370;2023-08-01T05:08:13;5.33;;;3.83;;
4601;SDS011;2313;48.552;9.370;2023-08-01T05:10:38;6.83;;;3.10;;
4601;SDS011;2313;48.552;9.370;2023-08-01T05:13:04;9.60;;;4.30;;
4601;SDS011;2313;48.552;9.370;2023-08-01T05:15:30;8.53;;;4.17;;
4601;SDS011;2313;48.552;9.370;2023-08-01T05:17:55;10.73;;;4.07;;
4601;SDS011;2313;48.552;9.370;2023-08-01T05:20:21;8.07;;;3.83;;
4601;SDS011;2313;48.552;9.370;2023-08-01T05:22:47;6.53;;;3.80;;
4601;SDS011;2313;48.552;9.370;2023-08-01T05:25:12;4.97;;;4.00;;
4601;SDS011;2313;48.552;9.370;2023-08-01T05:27:38;6.77;;;3.97;;
4601;SDS011;2313;48.552;9.370;2023-08-01T05:30:04;8.80;;;3.77;;
4601;SDS011;2313;48.552;9.370;2023-08-01T05:32:30;6.03;;;4.00;;
4601;SDS011;2313;48.552;9.370;2023-08-01T05:34:55;5.90;;;4.03;;
4601;SDS011;2313;48.552;9.370;2023-08-01T05:37:21;7.83;;;3.97;;
4601;SDS011;2313;48.552;9.370;2023-08-01T05:39:46;4.97;;;3.40;;
4601;SDS011;2313;48.552;9.370;2023-08-01T05:42:12;9.07;;;3.67;;
4601;SDS011;2313;48.552;9.370;2023-08-01T05:44:37;4.30;;;3.63;;
4601;SDS011;2313;48.552;9.370;2023-08-01T05:47:03;4.47;;;3.43;;
4601;SDS011;2313;48.552;9.370;2023-08-01T05:49:29;5.57;;;3.47;;
4601;SDS011;2313;48.552;9.370;2023-08-01T05:51:55;3.40;;;2.80;;
4601;SDS011;2313;48.552;9.370;2023-08-01T05:54:20;4.80;;;2.93;;
4601;SDS011;2313;48.552;9.370;2023-08-01T05:56:46;4.47;;;3.10;;
4601;SDS011;2313;48.552;9.370;2023-08-01T05:59:11;8.40;;;3.10;;
4601;SDS011;2313;48.552;9.370;2023-08-01T06:01:37;3.97;;;2.97;;
4601;SDS011;2313;48.552;9.370;2023-08-01T06:04:03;4.63;;;2.87;;
4601;SDS011;2313;48.552;9.370;2023-08-01T06:06:29;3.37;;;2.37;;
4601;SDS011;2313;48.552;9.370;2023-08-01T06:08:54;4.80;;;2.30;;
4601;SDS011;2313;48.552;9.370;2023-08-01T06:11:21;3.30;;;2.50;;
4601;SDS011;2313;48.552;9.370;2023-08-01T06:13:46;3.93;;;2.53;;
4601;SDS011;2313;48.552;9.370;2023-08-01T06:16:12;6.33;;;2.83;;
4601;SDS011;2313;48.552;9.370;2023-08-01T06:18:37;6.77;;;2.93;;
4601;SDS011;2313;48.552;9.370;2023-08-01T06:21:03;3.47;;;2.83;;
4601;SDS011;2313;48.552;9.370;2023-08-01T06:23:29;6.87;;;4.03;;
4601;SDS011;2313;48.552;9.370;2023-08-01T06:25:54;4.37;;;2.97;;
4601;SDS011;2313;48.552;9.370;2023-08-01T06:28:20;8.60;;;3.73;;
4601;SDS011;2313;48.552;9.370;2023-08-01T06:30:45;6.70;;;3.80;;
4601;SDS011;2313;48.552;9.370;2023-08-01T06:33:11;6.20;;;4.40;;
4601;SDS011;2313;48.552;9.370;2023-08-01T06:35:36;5.33;;;3.90;;
4601;SDS011;2313;48.552;9.370;2023-08-01T06:38:02;5.93;;;4.43;;
4601;SDS011;2313;48.552;9.370;2023-08-01T06:40:28;5.37;;;3.90;;
4601;SDS011;2313;48.552;9.370;2023-08-01T06:42:53;5.30;;;3.97;;
4601;SDS011;2313;48.552;9.370;2023-08-01T06:45:19;7.60;;;4.73;;
4601;SDS011;2313;48.552;9.370;2023-08-01T06:47:44;11.20;;;5.03;;
4601;SDS011;2313;48.552;9.370;2023-08-01T06:50:10;8.53;;;4.73;;
4601;SDS011;2313;48.552;9.370;2023-08-01T06:52:35;7.00;;;4.40;;
4601;SDS011;2313;48.552;9.370;2023-08-01T06:55:01;6.80;;;4.60;;
4601;SDS011;2313;48.552;9.370;2023-08-01T06:57:27;8.50;;;4.73;;
4601;SDS011;2313;48.552;9.370;2023-08-01T06:59:52;6.63;;;4.33;;
4601;SDS011;2313;48.552;9.370;2023-08-01T07:02:18;7.00;;;4.50;;
4601;SDS011;2313;48.552;9.370;2023-08-01T07:04:44;6.20;;;4.87;;
4601;SDS011;2313;48.552;9.370;2023-08-01T07:07:09;6.80;;;3.80;;
4601;SDS011;2313;48.552;9.370;2023-08-01T07:09:35;5.07;;;3.90;;
4601;SDS011;2313;48.552;9.370;2023-08-01T07:12:00;6.10;;;4.17;;
4601;SDS011;2313;48.552;9.370;2023-08-01T07:14:26;6.80;;;4.67;;
4601;SDS011;2313;48.552;9.370;2023-08-01T07:16:52;8.00;;;4.90;;
4601;SDS011;2313;48.552;9.370;2023-08-01T07:19:18;7.20;;;4.60;;
4601;SDS011;2313;48.552;9.370;2023-08-01T07:21:43;7.03;;;4.27;;
4601;SDS011;2313;48.552;9.370;2023-08-01T07:24:11;6.20;;;4.43;;
4601;SDS011;2313;48.552;9.370;2023-08-01T07:26:38;8.17;;;4.93;;
4601;SDS011;2313;48.552;9.370;2023-08-01T07:29:04;6.23;;;4.03;;
4601;SDS011;2313;48.552;9.370;2023-08-01T07:31:30;8.27;;;4.47;;
4601;SDS011;2313;48.552;9.370;2023-08-01T07:33:55;5.00;;;3.87;;
4601;SDS011;2313;48.552;9.370;2023-08-01T07:36:21;6.07;;;4.17;;
4601;SDS011;2313;48.552;9.370;2023-08-01T07:38:46;8.23;;;4.20;;
4601;SDS011;2313;48.552;9.370;2023-08-01T07:41:12;5.73;;;3.77;;
4601;SDS011;2313;48.552;9.370;2023-08-01T07:43:37;5.93;;;3.60;;
4601;SDS011;2313;48.552;9.370;2023-08-01T07:46:03;6.57;;;4.30;;
4601;SDS011;2313;48.552;9.370;2023-08-01T07:48:29;5.83;;;4.70;;
4601;SDS011;2313;48.552;9.370;2023-08-01T07:50:54;5.87;;;4.10;;
4601;SDS011;2313;48.552;9.370;2023-08-01T07:53:20;6.67;;;4.13;;
4601;SDS011;2313;48.552;9.370;2023-08-01T07:55:45;8.53;;;3.93;;
4601;SDS011;2313;48.552;9.370;2023-08-01T07:58:11;5.80;;;3.63;;
4601;SDS011;2313;48.552;9.370;2023-08-01T08:00:37;5.20;;;3.80;;
4601;SDS011;2313;48.552;9.370;2023-08-01T08:03:02;5.13;;;3.90;;
4601;SDS011;2313;48.552;9.370;2023-08-01T08:05:28;6.57;;;3.93;;
4601;SDS011;2313;48.552;9.370;2023-08-01T08:07:53;7.70;;;4.37;;
4601;SDS011;2313;48.552;9.370;2023-08-01T08:10:19;8.80;;;4.63;;
4601;SDS011;2313;48.552;9.370;2023-08-01T08:12:45;6.10;;;3.30;;
4601;SDS011;2313;48.552;9.370;2023-08-01T08:15:10;5.00;;;3.37;;
4601;SDS011;2313;48.552;9.370;2023-08-01T08:17:38;6.50;;;3.50;;
4601;SDS011;2313;48.552;9.370;2023-08-01T08:20:04;8.37;;;4.30;;
4601;SDS011;2313;48.552;9.370;2023-08-01T08:22:31;5.20;;;3.60;;
4601;SDS011;2313;48.552;9.370;2023-08-01T08:24:56;9.07;;;4.60;;
4601;SDS011;2313;48.552;9.370;2023-08-01T08:27:22;7.10;;;4.10;;
4601;SDS011;2313;48.552;9.370;2023-08-01T08:29:48;4.73;;;3.40;;
4601;SDS011;2313;48.552;9.370;2023-08-01T08:32:13;9.03;;;3.80;;
4601;SDS011;2313;48.552;9.370;2023-08-01T08:34:39;4.40;;;3.37;;
4601;SDS011;2313;48.552;9.370;2023-08-01T08:37:04;6.83;;;3.73;;
4601;SDS011;2313;48.552;9.370;2023-08-01T08:39:30;4.87;;;3.40;;
4601;SDS011;2313;48.552;9.370;2023-08-01T08:41:56;5.80;;;3.83;;
4601;SDS011;2313;48.552;9.370;2023-08-01T08:44:22;3.80;;;3.00;;
4601;SDS011;2313;48.552;9.370;2023-08-01T08:46:50;6.07;;;3.40;;
4601;SDS011;2313;48.552;9.370;2023-08-01T08:49:20;4.93;;;3.20;;
4601;SDS011;2313;48.552;9.370;2023-08-01T08:51:46;5.90;;;2.30;;
4601;SDS011;2313;48.552;9.370;2023-08-01T08:54:13;4.33;;;3.03;;
4601;SDS011;2313;48.552;9.370;2023-08-01T08:56:40;4.03;;;2.53;;
4601;SDS011;2313;48.552;9.370;2023-08-01T08:59:09;4.30;;;2.43;;
4601;SDS011;2313;48.552;9.370;2023-08-01T09:01:35;2.60;;;2.40;;
4601;SDS011;2313;48.552;9.370;2023-08-01T09:04:01;2.30;;;2.10;;
4601;SDS011;2313;48.552;9.370;2023-08-01T09:06:49;3.50;;;2.50;;
4601;SDS011;2313;48.552;9.370;2023-08-01T09:09:14;2.63;;;2.20;;
4601;SDS011;2313;48.552;9.370;2023-08-01T09:11:47;6.23;;;2.37;;
4601;SDS011;2313;48.552;9.370;2023-08-01T09:14:14;2.97;;;2.17;;
4601;SDS011;2313;48.552;9.370;2023-08-01T09:16:41;2.50;;;1.70;;
4601;SDS011;2313;48.552;9.370;2023-08-01T09:19:07;3.10;;;2.23;;
4601;SDS011;2313;48.552;9.370;2023-08-01T09:21:34;2.07;;;1.50;;
4601;SDS011;2313;48.552;9.370;2023-08-01T09:24:09;1.40;;;1.30;;
4601;SDS011;2313;48.552;9.370;2023-08-01T09:26:39;1.80;;;1.43;;
4601;SDS011;2313;48.552;9.370;2023-08-01T09:29:05;1.10;;;1.00;;
4601;SDS011;2313;48.552;9.370;2023-08-01T09:31:38;1.40;;;1.17;;
4601;SDS011;2313;48.552;9.370;2023-08-01T09:34:06;1.80;;;1.03;;
4601;SDS011;2313;48.552;9.370;2023-08-01T09:36:46;1.67;;;1.20;;
4601;SDS011;2313;48.552;9.370;2023-08-01T09:39:16;1.47;;;1.03;;
4601;SDS011;2313;48.552;9.370;2023-08-01T09:41:43;1.27;;;1.10;;
4601;SDS011;2313;48.552;9.370;2023-08-01T09:44:12;2.73;;;1.40;;
4601;SDS011;2313;48.552;9.370;2023-08-01T09:46:40;4.10;;;1.20;;
4601;SDS011;2313;48.552;9.370;2023-08-01T09:49:10;1.93;;;1.10;;
4601;SDS011;2313;48.552;9.370;2023-08-01T09:51:46;1.77;;;1.00;;
4601;SDS011;2313;48.552;9.370;2023-08-01T09:54:15;2.37;;;1.20;;
4601;SDS011;2313;48.552;9.370;2023-08-01T09:56:45;3.10;;;1.10;;
4601;SDS011;2313;48.552;9.370;2023-08-01T09:59:12;1.90;;;1.03;;
4601;SDS011;2313;48.552;9.370;2023-08-01T10:01:41;1.20;;;0.70;;
4601;SDS011;2313;48.552;9.370;2023-08-01T10:04:09;1.00;;;0.80;;
4601;SDS011;2313;48.552;9.370;2023-08-01T10:06:37;2.63;;;0.90;;
4601;SDS011;2313;48.552;9.370;2023-08-01T10:09:03;1.33;;;1.00;;
4601;SDS011;2313;48.552;9.370;2023-08-01T10:11:30;1.33;;;1.00;;
4601;SDS011;2313;48.552;9.370;2023-08-01T10:13:59;1.40;;;1.07;;
4601;SDS011;2313;48.552;9.370;2023-08-01T10:16:27;1.00;;;0.80;;
4601;SDS011;2313;48.552;9.370;2023-08-01T10:18:54;1.00;;;0.90;;
4601;SDS011;2313;48.552;9.370;2023-08-01T10:21:20;0.90;;;0.60;;
4601;SDS011;2313;48.552;9.370;2023-08-01T10:23:46;1.40;;;0.70;;
4601;SDS011;2313;48.552;9.370;2023-08-01T10:26:13;1.50;;;1.10;;
4601;SDS011;2313;48.552;9.370;2023-08-01T10:28:40;0.90;;;0.60;;
4601;SDS011;2313;48.552;9.370;2023-08-01T10:31:14;1.10;;;0.70;;
4601;SDS011;2313;48.552;9.370;2023-08-01T10:33:41;1.10;;;0.80;;
4601;SDS011;2313;48.552;9.370;2023-08-01T10:36:15;1.10;;;0.70;;
4601;SDS011;2313;48.552;9.370;2023-08-01T10:38:46;1.00;;;0.70;;
4601;SDS011;2313;48.552;9.370;2023-08-01T10:41:27;1.40;;;0.90;;
4601;SDS011;2313;48.552;9.370;2023-08-01T10:44:10;1.73;;;0.87;;
4601;SDS011;2313;48.552;9.370;2023-08-01T10:46:54;1.07;;;0.70;;
4601;SDS011;2313;48.552;9.370;2023-08-01T10:49:32;0.80;;;0.60;;
4601;SDS011;2313;48.552;9.370;2023-08-01T10:52:15;0.90;;;0.50;;
4601;SDS011;2313;48.552;9.370;2023-08-01T10:54:42;1.10;;;0.80;;
4601;SDS011;2313;48.552;9.370;2023-08-01T10:57:07;1.63;;;0.60;;
4601;SDS011;2313;48.552;9.370;2023-08-01T10:59:34;2.00;;;0.60;;
4601;SDS011;2313;48.552;9.370;2023-08-01T11:01:59;1.40;;;0.63;;
4601;SDS011;2313;48.552;9.370;2023-08-01T11:04:26;1.00;;;0.60;;
4601;SDS011;2313;48.552;9.370;2023-08-01T11:06:52;2.30;;;0.70;;
4601;SDS011;2313;48.552;9.370;2023-08-01T11:09:22;1.10;;;0.70;;
4601;SDS011;2313;48.552;9.370;2023-08-01T11:11:56;1.30;;;0.77;;
4601;SDS011;2313;48.552;9.370;2023-08-01T11:14:23;1.20;;;0.70;;
4601;SDS011;2313;48.552;9.370;2023-08-01T11:16:51;1.00;;;0.70;;
4601;SDS011;2313;48.552;9.370;2023-08-01T11:19:19;1.67;;;1.00;;
4601;SDS011;2313;48.552;9.370;2023-08-01T11:21:52;1.00;;;0.80;;
4601;SDS011;2313;48.552;9.370;2023-08-01T11:24:22;0.90;;;0.60;;
4601;SDS011;2313;48.552;9.370;2023-08-01T11:26:50;2.60;;;0.87;;
4601;SDS011;2313;48.552;9.370;2023-08-01T11:29:17;2.60;;;1.03;;
4601;SDS011;2313;48.552;9.370;2023-08-01T11:31:57;1.93;;;0.60;;
4601;SDS011;2313;48.552;9.370;2023-08-01T11:34:24;1.20;;;0.80;;
4601;SDS011;2313;48.552;9.370;2023-08-01T11:36:50;1.53;;;0.87;;
4601;SDS011;2313;48.552;9.370;2023-08-01T11:39:16;1.90;;;0.83;;
4601;SDS011;2313;48.552;9.370;2023-08-01T11:41:43;0.90;;;0.70;;
4601;SDS011;2313;48.552;9.370;2023-08-01T11:44:09;1.60;;;1.10;;
4601;SDS011;2313;48.552;9.370;2023-08-01T11:46:36;2.43;;;1.00;;
4601;SDS011;2313;48.552;9.370;2023-08-01T11:49:03;6.10;;;1.07;;
4601;SDS011;2313;48.552;9.370;2023-08-01T11:51:30;1.43;;;0.80;;
4601;SDS011;2313;48.552;9.370;2023-08-01T11:54:08;1.20;;;0.90;;
4601;SDS011;2313;48.552;9.370;2023-08-01T11:56:37;3.40;;;1.10;;
4601;SDS011;2313;48.552;9.370;2023-08-01T11:59:10;1.97;;;1.20;;
4601;SDS011;2313;48.552;9.370;2023-08-01T12:01:37;1.80;;;0.90;;
4601;SDS011;2313;48.552;9.370;2023-08-01T12:04:04;0.90;;;0.80;;
4601;SDS011;2313;48.552;9.370;2023-08-01T12:06:31;3.03;;;0.90;;
4601;SDS011;2313;48.552;9.370;2023-08-01T12:09:07;1.20;;;1.00;;
4601;SDS011;2313;48.552;9.370;2023-08-01T12:11:37;1.20;;;0.80;;
4601;SDS011;2313;48.552;9.370;2023-08-01T12:14:10;1.43;;;0.90;;
4601;SDS011;2313;48.552;9.370;2023-08-01T12:16:38;1.60;;;1.10;;
4601;SDS011;2313;48.552;9.370;2023-08-01T12:19:05;1.23;;;1.13;;
4601;SDS011;2313;48.552;9.370;2023-08-01T12:21:33;1.53;;;0.90;;
4601;SDS011;2313;48.552;9.370;2023-08-01T12:23:59;1.87;;;1.20;;
4601;SDS011;2313;48.552;9.370;2023-08-01T12:26:25;1.77;;;0.93;;
4601;SDS011;2313;48.552;9.370;2023-08-01T12:28:51;3.17;;;1.00;;
4601;SDS011;2313;48.552;9.370;2023-08-01T12:31:17;1.60;;;0.90;;
4601;SDS011;2313;48.552;9.370;2023-08-01T12:33:45;2.30;;;1.43;;
4601;SDS011;2313;48.552;9.370;2023-08-01T12:36:11;1.03;;;0.93;;
4601;SDS011;2313;48.552;9.370;2023-08-01T12:38:37;1.10;;;1.00;;
4601;SDS011;2313;48.552;9.370;2023-08-01T12:41:03;1.17;;;1.03;;
4601;SDS011;2313;48.552;9.370;2023-08-01T12:43:28;1.10;;;0.93;;
4601;SDS011;2313;48.552;9.370;2023-08-01T12:45:54;1.97;;;1.00;;
4601;SDS011;2313;48.552;9.370;2023-08-01T12:48:22;2.70;;;0.90;;
4601;SDS011;2313;48.552;9.370;2023-08-01T12:50:48;2.07;;;1.03;;
4601;SDS011;2313;48.552;9.370;2023-08-01T12:53:13;3.10;;;1.30;;
4601;SDS011;2313;48.552;9.370;2023-08-01T12:55:42;2.00;;;0.93;;
4601;SDS011;2313;48.552;9.370;2023-08-01T12:58:09;2.40;;;1.00;;
4601;SDS011;2313;48.552;9.370;2023-08-01T13:00:34;1.70;;;1.13;;
4601;SDS011;2313;48.552;9.370;2023-08-01T13:03:00;2.73;;;1.13;;
4601;SDS011;2313;48.552;9.370;2023-08-01T13:05:25;1.70;;;1.07;;
4601;SDS011;2313;48.552;9.370;2023-08-01T13:07:51;2.60;;;0.90;;
4601;SDS011;2313;48.552;9.370;2023-08-01T13:10:17;1.50;;;1.00;;
4601;SDS011;2313;48.552;9.370;2023-08-01T13:12:42;1.30;;;1.20;;
4601;SDS011;2313;48.552;9.370;2023-08-01T13:15:08;1.50;;;1.10;;
4601;SDS011;2313;48.552;9.370;2023-08-01T13:17:34;2.43;;;1.30;;
4601;SDS011;2313;48.552;9.370;2023-08-01T13:20:00;1.40;;;0.87;;
4601;SDS011;2313;48.552;9.370;2023-08-01T13:22:25;1.27;;;1.17;;
4601;SDS011;2313;48.552;9.370;2023-08-01T13:24:51;3.33;;;0.90;;
4601;SDS011;2313;48.552;9.370;2023-08-01T13:27:16;1.20;;;0.70;;
4601;SDS011;2313;48.552;9.370;2023-08-01T13:29:42;1.20;;;1.10;;
4601;SDS011;2313;48.552;9.370;2023-08-01T13:32:08;1.40;;;1.20;;
4601;SDS011;2313;48.552;9.370;2023-08-01T13:34:33;1.40;;;0.90;;
4601;SDS011;2313;48.552;9.370;2023-08-01T13:36:59;1.73;;;1.10;;
4601;SDS011;2313;48.552;9.370;2023-08-01T13:39:24;4.00;;;1.30;;
4601;SDS011;2313;48.552;9.370;2023-08-01T13:41:50;1.83;;;0.90;;
4601;SDS011;2313;48.552;9.370;2023-08-01T13:44:16;1.40;;;0.90;;
4601;SDS011;2313;48.552;9.370;2023-08-01T13:46:41;1.53;;;1.10;;
4601;SDS011;2313;48.552;9.370;2023-08-01T13:49:07;2.17;;;1.00;;
4601;SDS011;2313;48.552;9.370;2023-08-01T13:51:33;1.20;;;1.03;;
4601;SDS011;2313;48.552;9.370;2023-08-01T13:53:59;7.73;;;1.20;;
4601;SDS011;2313;48.552;9.370;2023-08-01T13:56:25;1.00;;;0.80;;
4601;SDS011;2313;48.552;9.370;2023-08-01T13:58:51;1.37;;;0.90;;
4601;SDS011;2313;48.552;9.370;2023-08-01T14:01:17;2.80;;;1.00;;
4601;SDS011;2313;48.552;9.370;2023-08-01T14:03:45;2.50;;;1.10;;
4601;SDS011;2313;48.552;9.370;2023-08-01T14:06:12;1.40;;;1.17;;
4601;SDS011;2313;48.552;9.370;2023-08-01T14:08:38;1.50;;;1.13;;
4601;SDS011;2313;48.552;9.370;2023-08-01T14:11:06;3.53;;;1.37;;
4601;SDS011;2313;48.552;9.370;2023-08-01T14:13:33;2.40;;;1.10;;
4601;SDS011;2313;48.552;9.370;2023-08-01T14:15:59;1.40;;;1.17;;
4601;SDS011;2313;48.552;9.370;2023-08-01T14:18:26;1.37;;;0.90;;
4601;SDS011;2313;48.552;9.370;2023-08-01T14:20:52;1.53;;;0.90;;
4601;SDS011;2313;48.552;9.370;2023-08-01T14:23:18;1.73;;;1.13;;
4601;SDS011;2313;48.552;9.370;2023-08-01T14:25:44;1.30;;;1.20;;
4601;SDS011;2313;48.552;9.370;2023-08-01T14:28:10;2.07;;;1.50;;
4601;SDS011;2313;48.552;9.370;2023-08-01T14:30:36;1.60;;;1.00;;
4601;SDS011;2313;48.552;9.370;2023-08-01T14:33:02;2.60;;;0.93;;
4601;SDS011;2313;48.552;9.370;2023-08-01T14:35:30;2.73;;;1.00;;
4601;SDS011;2313;48.552;9.370;2023-08-01T14:37:56;2.37;;;0.97;;
4601;SDS011;2313;48.552;9.370;2023-08-01T14:40:22;1.43;;;1.00;;
4601;SDS011;2313;48.552;9.370;2023-08-01T14:42:48;2.30;;;1.37;;
4601;SDS011;2313;48.552;9.370;2023-08-01T14:45:14;8.70;;;1.07;;
4601;SDS011;2313;48.552;9.370;2023-08-01T14:47:41;2.03;;;1.13;;
4601;SDS011;2313;48.552;9.370;2023-08-01T14:50:07;3.53;;;1.40;;
4601;SDS011;2313;48.552;9.370;2023-08-01T14:52:34;3.53;;;1.17;;
4601;SDS011;2313;48.552;9.370;2023-08-01T14:55:00;3.93;;;1.40;;
4601;SDS011;2313;48.552;9.370;2023-08-01T14:57:25;1.90;;;0.90;;
4601;SDS011;2313;48.552;9.370;2023-08-01T14:59:51;1.73;;;1.20;;
4601;SDS011;2313;48.552;9.370;2023-08-01T15:02:17;5.07;;;1.30;;
4601;SDS011;2313;48.552;9.370;2023-08-01T15:04:43;5.00;;;1.17;;
4601;SDS011;2313;48.552;9.370;2023-08-01T15:07:09;4.83;;;1.03;;
4601;SDS011;2313;48.552;9.370;2023-08-01T15:09:34;2.70;;;1.47;;
4601;SDS011;2313;48.552;9.370;2023-08-01T15:12:00;4.83;;;1.20;;